createdAt,value
2022-11-16T03:36:50.081Z,4.28
2022-11-16T03:39:25.614Z,4.97
2022-11-16T03:41:53.241Z,4.90
2022-11-16T03:44:21.289Z,5.78
2022-11-16T03:46:48.265Z,5.68
2022-11-16T03:49:14.772Z,4.88
2022-11-16T03:51:41.705Z,5.20
2022-11-16T03:54:08.166Z,5.00
2022-11-16T03:56:34.600Z,5.50
2022-11-16T03:59:01.112Z,5.85
2022-11-16T04:01:27.657Z,5.30
2022-11-16T04:03:54.141Z,5.85
2022-11-16T04:06:39.273Z,5.72
2022-11-16T04:09:24.081Z,5.43
2022-11-16T04:12:09.789Z,5.97
2022-11-16T04:14:54.545Z,5.65
2022-11-16T04:17:42.874Z,5.70
2022-11-16T04:20:30.104Z,5.75
2022-11-16T04:23:18.028Z,5.22
2022-11-16T04:25:46.735Z,6.50
2022-11-16T04:28:14.567Z,5.85
2022-11-16T04:31:05.112Z,6.35
2022-11-16T04:33:50.645Z,6.32
2022-11-16T04:36:36.090Z,5.85
2022-11-16T04:39:03.201Z,7.07
2022-11-16T04:41:50.034Z,5.90
2022-11-16T04:44:16.759Z,6.30
2022-11-16T04:49:28.226Z,6.88
2022-11-16T04:54:21.139Z,6.78
2022-11-16T04:56:47.766Z,7.82
2022-11-16T05:01:59.391Z,8.07
2022-11-16T05:04:25.864Z,8.05
2022-11-16T05:06:52.382Z,8.07
2022-11-16T05:09:18.986Z,8.65
2022-11-16T05:11:45.472Z,9.55
2022-11-16T05:14:11.931Z,9.48
2022-11-16T05:16:38.360Z,8.57
2022-11-16T05:19:23.845Z,9.48
2022-11-16T05:21:50.341Z,7.80
2022-11-16T05:24:35.088Z,8.45
2022-11-16T05:27:07.246Z,8.70
2022-11-16T05:29:34.716Z,10.00
2022-11-16T05:32:02.364Z,8.80
2022-11-16T05:34:29.220Z,8.10
2022-11-16T05:36:56.535Z,9.52
2022-11-16T05:39:23.360Z,7.80
2022-11-16T05:41:50.298Z,9.35
2022-11-16T05:44:17.105Z,8.95
2022-11-16T05:46:44.635Z,9.07
2022-11-16T05:49:12.295Z,8.88
2022-11-16T05:51:41.001Z,8.25
2022-11-16T05:54:07.974Z,8.63
2022-11-16T05:56:35.152Z,8.55
2022-11-16T05:59:01.742Z,9.43
2022-11-16T06:01:28.359Z,10.80
2022-11-16T06:06:21.239Z,10.18
2022-11-16T06:08:47.733Z,10.07
2022-11-16T06:11:14.288Z,9.88
2022-11-16T06:13:40.807Z,9.93
2022-11-16T06:16:07.935Z,10.25
2022-11-16T06:18:38.418Z,10.90
2022-11-16T06:21:05.435Z,10.75
2022-11-16T06:23:31.857Z,10.75
2022-11-16T06:25:58.661Z,10.80
2022-11-16T06:28:25.813Z,10.23
2022-11-16T06:30:52.264Z,11.30
2022-11-16T06:33:19.073Z,11.27
2022-11-16T06:35:45.762Z,11.13
2022-11-16T06:40:52.625Z,10.60
2022-11-16T06:43:20.037Z,10.40
2022-11-16T06:45:51.825Z,11.80
2022-11-16T06:48:18.929Z,10.65
2022-11-16T06:50:47.913Z,11.82
2022-11-16T06:53:14.399Z,11.45
2022-11-16T06:55:40.840Z,11.40
2022-11-16T06:58:07.325Z,10.23
2022-11-16T07:00:34.230Z,11.70
2022-11-16T07:03:03.325Z,12.55
2022-11-16T07:05:30.932Z,11.55
2022-11-16T07:07:57.797Z,13.57
2022-11-16T07:10:24.949Z,12.52
2022-11-16T07:12:51.462Z,12.23
2022-11-16T07:15:18.283Z,13.90
2022-11-16T07:17:44.778Z,11.25
2022-11-16T07:20:12.123Z,12.60
2022-11-16T07:22:38.603Z,16.45
2022-11-16T07:25:05.485Z,14.18
2022-11-16T07:27:31.935Z,14.20
2022-11-16T07:29:58.422Z,12.05
2022-11-16T07:32:24.838Z,13.15
2022-11-16T07:34:51.243Z,12.02
2022-11-16T07:37:17.694Z,13.85
2022-11-16T07:39:45.590Z,12.23
2022-11-16T07:42:12.338Z,12.13
2022-11-16T07:47:07.087Z,11.35
2022-11-16T07:49:33.602Z,12.85
2022-11-16T07:52:00.083Z,12.52
2022-11-16T07:54:26.606Z,13.70
2022-11-16T07:56:53.062Z,12.88
2022-11-16T07:59:19.499Z,12.57
2022-11-16T08:01:48.994Z,11.70
2022-11-16T08:04:17.517Z,12.98
2022-11-16T08:06:44.595Z,12.88
2022-11-16T08:09:11.030Z,11.60
2022-11-16T08:11:38.093Z,11.98
2022-11-16T08:14:04.856Z,12.65
2022-11-16T08:19:02.294Z,11.65
2022-11-16T08:21:28.850Z,12.50
2022-11-16T08:23:58.359Z,12.07
2022-11-16T08:26:25.211Z,13.15
2022-11-16T08:28:53.866Z,12.02
2022-11-16T08:31:24.144Z,12.82
2022-11-16T08:33:52.083Z,14.35
2022-11-16T08:36:19.263Z,13.23
2022-11-16T08:38:47.548Z,14.02
2022-11-16T08:41:14.797Z,12.75
2022-11-16T08:43:41.723Z,14.13
2022-11-16T08:46:09.713Z,12.27
2022-11-16T08:48:37.506Z,13.25
2022-11-16T08:51:17.417Z,13.35
2022-11-16T08:53:45.126Z,12.90
2022-11-16T08:58:43.543Z,13.15
2022-11-16T09:01:12.465Z,12.73
2022-11-16T09:03:39.256Z,13.13
2022-11-16T09:08:34.118Z,11.93
2022-11-16T09:11:04.896Z,10.70
2022-11-16T09:13:31.517Z,12.85
2022-11-16T09:16:02.212Z,14.38
2022-11-16T09:18:29.036Z,13.75
2022-11-16T09:20:55.875Z,12.82
2022-11-16T09:23:25.562Z,12.13
2022-11-16T09:25:52.854Z,13.95
2022-11-16T09:28:20.367Z,13.90
2022-11-16T09:30:50.000Z,13.57
2022-11-16T09:33:16.923Z,14.25
2022-11-16T09:35:43.375Z,13.50
2022-11-16T09:38:10.062Z,12.98
2022-11-16T09:40:44.007Z,13.48
2022-11-16T09:43:28.878Z,12.77
2022-11-16T09:46:27.223Z,12.55
2022-11-16T09:48:58.668Z,12.60
2022-11-16T09:51:29.553Z,11.48
2022-11-16T09:54:06.081Z,12.18
2022-11-16T09:56:37.307Z,12.33
2022-11-16T09:59:04.059Z,12.23
2022-11-16T10:01:58.128Z,12.48
2022-11-16T10:04:38.618Z,11.93
2022-11-16T10:07:16.697Z,12.25
2022-11-16T10:09:46.927Z,11.93
2022-11-16T10:12:33.697Z,11.25
2022-11-16T10:15:37.062Z,11.45
2022-11-16T10:18:18.458Z,10.98
2022-11-16T10:21:09.616Z,11.32
2022-11-16T10:23:54.527Z,11.00
2022-11-16T10:26:46.316Z,12.20
2022-11-16T10:29:37.691Z,10.55
2022-11-16T10:32:16.437Z,12.48
2022-11-16T10:35:01.164Z,14.43
2022-11-16T10:37:31.576Z,11.98
2022-11-16T10:39:58.916Z,10.45
2022-11-16T10:42:36.179Z,11.30
2022-11-16T10:47:58.472Z,9.23
2022-11-16T10:50:38.908Z,8.85
2022-11-16T10:53:05.656Z,10.20
2022-11-16T10:58:07.605Z,10.05
2022-11-16T11:00:38.696Z,10.27
2022-11-16T11:03:05.290Z,10.77
2022-11-16T11:05:32.371Z,9.82
2022-11-16T11:08:10.081Z,9.15
2022-11-16T11:10:38.901Z,10.52
2022-11-16T11:13:07.632Z,9.70
2022-11-16T11:15:34.128Z,9.95
2022-11-16T11:18:15.664Z,10.07
2022-11-16T11:20:45.664Z,10.45
2022-11-16T11:23:23.928Z,10.00
2022-11-16T11:26:02.455Z,10.20
2022-11-16T11:28:32.554Z,10.82
2022-11-16T11:31:11.604Z,10.73
2022-11-16T11:33:49.072Z,10.75
2022-11-16T11:36:20.461Z,9.63
2022-11-16T11:38:55.954Z,10.32
2022-11-16T11:41:22.570Z,11.07
2022-11-16T11:44:03.349Z,11.15
2022-11-16T11:47:18.254Z,11.98
2022-11-16T11:49:33.894Z,12.38
2022-11-16T11:52:11.683Z,13.43
2022-11-16T11:54:46.045Z,11.25
2022-11-16T11:57:20.563Z,12.93
2022-11-16T11:59:48.000Z,11.70
2022-11-16T12:02:46.221Z,12.05
2022-11-16T12:05:55.208Z,10.52
2022-11-16T12:11:38.121Z,9.82
2022-11-16T12:14:49.384Z,11.30
2022-11-16T12:17:34.550Z,9.80
2022-11-16T12:20:19.889Z,10.10
2022-11-16T12:23:08.219Z,9.63
2022-11-16T12:25:58.355Z,9.60
2022-11-16T12:28:42.622Z,9.68
2022-11-16T12:31:37.938Z,9.00
2022-11-16T12:34:23.107Z,10.20
2022-11-16T12:37:28.207Z,9.77
2022-11-16T12:40:12.995Z,9.13
2022-11-16T12:42:54.485Z,10.65
2022-11-16T12:45:44.974Z,9.15
2022-11-16T12:48:49.706Z,10.02
2022-11-16T12:51:31.856Z,9.90
2022-11-16T12:54:08.973Z,9.55
2022-11-16T12:56:48.854Z,10.23
2022-11-16T12:59:36.954Z,8.68
2022-11-16T13:02:25.340Z,9.43
2022-11-16T13:05:03.766Z,9.85
2022-11-16T13:07:41.199Z,10.65
2022-11-16T13:10:18.661Z,9.45
2022-11-16T13:12:49.419Z,9.82
2022-11-16T13:15:22.165Z,10.35
2022-11-16T13:17:55.098Z,10.63
2022-11-16T13:20:45.719Z,9.60
2022-11-16T13:23:41.766Z,9.05
2022-11-16T13:26:23.121Z,9.77
2022-11-16T13:29:14.582Z,8.98
2022-11-16T13:31:58.017Z,10.10
2022-11-16T13:34:29.002Z,9.27
2022-11-16T13:36:55.651Z,9.70
2022-11-16T13:39:50.794Z,10.27
2022-11-16T13:42:17.651Z,9.75
2022-11-16T13:44:48.759Z,9.07
2022-11-16T13:47:28.383Z,9.40
2022-11-16T13:49:59.541Z,9.85
2022-11-16T13:53:28.451Z,9.65
2022-11-16T13:55:35.686Z,9.88
2022-11-16T13:58:05.567Z,9.38
2022-11-16T14:00:38.377Z,8.93
2022-11-16T14:03:17.021Z,8.80
2022-11-16T14:05:48.311Z,9.70
2022-11-16T14:08:26.626Z,8.90
2022-11-16T14:10:53.016Z,8.77
2022-11-16T14:13:47.413Z,9.38
2022-11-16T14:16:19.861Z,9.95
2022-11-16T14:18:55.138Z,9.00
2022-11-16T14:21:52.949Z,8.68
2022-11-16T14:24:46.179Z,9.02
2022-11-16T14:27:30.495Z,9.70
2022-11-16T14:30:05.640Z,8.88
2022-11-16T14:32:39.733Z,9.35
2022-11-16T14:35:27.318Z,9.68
2022-11-16T14:38:07.505Z,10.38
2022-11-16T14:40:45.085Z,9.40
2022-11-16T14:43:21.871Z,9.30
2022-11-16T14:45:54.017Z,11.43
2022-11-16T14:48:23.540Z,8.85
2022-11-16T14:51:05.889Z,9.20
2022-11-16T14:53:35.149Z,9.55
2022-11-16T14:56:15.430Z,9.73
2022-11-16T14:58:56.255Z,10.00
2022-11-16T15:01:27.229Z,8.90
2022-11-16T15:04:02.445Z,9.00
2022-11-16T15:06:35.465Z,8.30
2022-11-16T15:09:04.487Z,9.50
2022-11-16T15:11:54.623Z,8.93
2022-11-16T15:14:31.688Z,9.95
2022-11-16T15:17:00.096Z,10.32
2022-11-16T15:19:30.619Z,9.82
2022-11-16T15:21:59.827Z,9.50
2022-11-16T15:24:34.362Z,11.55
2022-11-16T15:27:06.905Z,12.52
2022-11-16T15:29:33.463Z,10.70
2022-11-16T15:32:00.061Z,9.48
2022-11-16T15:34:26.548Z,9.50
2022-11-16T15:36:53.332Z,9.52
2022-11-16T15:41:49.113Z,8.80
2022-11-16T15:44:19.317Z,9.70
2022-11-16T15:46:49.024Z,9.63
2022-11-16T15:49:30.275Z,9.25
2022-11-16T15:51:58.522Z,10.15
2022-11-16T15:54:26.484Z,9.23
2022-11-16T15:56:56.450Z,9.57
2022-11-16T15:59:29.911Z,10.68
2022-11-16T16:01:56.822Z,9.98
2022-11-16T16:04:24.332Z,10.30
2022-11-16T16:06:52.063Z,10.75
2022-11-16T16:09:34.970Z,9.40
2022-11-16T16:12:22.633Z,10.07
2022-11-16T16:14:51.291Z,10.13
2022-11-16T16:17:30.595Z,10.55
2022-11-16T16:20:03.710Z,9.90
2022-11-16T16:22:35.661Z,10.23
2022-11-16T16:25:04.508Z,10.18
2022-11-16T16:27:32.368Z,9.73
2022-11-16T16:30:04.664Z,9.93
2022-11-16T16:32:33.312Z,10.27
2022-11-16T16:35:05.773Z,10.07
2022-11-16T16:37:34.060Z,10.95
2022-11-16T16:40:00.631Z,10.57
2022-11-16T16:42:27.243Z,11.45
2022-11-16T16:44:54.035Z,9.27
2022-11-16T16:49:48.813Z,9.38
2022-11-16T16:52:15.432Z,10.60
2022-11-16T16:54:41.975Z,10.55
2022-11-16T16:57:18.201Z,10.45
2022-11-16T16:59:45.474Z,10.13
2022-11-16T17:02:13.045Z,9.70
2022-11-16T17:04:40.162Z,9.85
2022-11-16T17:07:06.810Z,11.25
2022-11-16T17:11:59.708Z,8.55
2022-11-16T17:14:26.375Z,10.20
2022-11-16T17:16:52.828Z,10.18
2022-11-16T17:19:19.811Z,11.23
2022-11-16T17:21:46.463Z,10.95
2022-11-16T17:24:12.949Z,10.07
2022-11-16T17:26:41.047Z,10.63
2022-11-16T17:29:07.484Z,12.60
2022-11-16T17:31:33.991Z,12.25
2022-11-16T17:34:00.498Z,11.23
2022-11-16T17:36:26.931Z,10.35
2022-11-16T17:38:53.846Z,10.57
2022-11-16T17:41:25.245Z,10.70
2022-11-16T17:43:54.304Z,11.02
2022-11-16T17:46:22.412Z,10.80
2022-11-16T17:48:49.334Z,11.23
2022-11-16T17:51:19.902Z,10.30
2022-11-16T17:53:46.915Z,11.27
2022-11-16T17:56:15.810Z,10.98
2022-11-16T17:58:42.930Z,11.27
2022-11-16T18:01:09.457Z,10.70
2022-11-16T18:03:36.966Z,10.80
2022-11-16T18:06:11.074Z,10.55
2022-11-16T18:08:37.591Z,10.48
2022-11-16T18:11:13.348Z,10.35
2022-11-16T18:13:40.362Z,10.80
2022-11-16T18:16:11.061Z,10.88
2022-11-16T18:18:38.516Z,10.68
2022-11-16T18:21:06.626Z,10.23
2022-11-16T18:23:34.133Z,11.35
2022-11-16T18:26:03.235Z,10.90
2022-11-16T18:28:30.324Z,10.45
2022-11-16T18:31:04.926Z,10.80
2022-11-16T18:33:32.082Z,10.52
2022-11-16T18:35:59.047Z,10.02
2022-11-16T18:38:25.564Z,10.23
2022-11-16T18:41:11.287Z,9.02
2022-11-16T18:43:52.308Z,9.98
2022-11-16T18:46:20.987Z,9.25
2022-11-16T18:48:47.785Z,9.27
2022-11-16T18:53:41.480Z,8.07
2022-11-16T18:56:08.310Z,8.35
2022-11-16T19:01:24.496Z,8.05
2022-11-16T19:03:52.357Z,8.07
2022-11-16T19:06:19.236Z,9.02
2022-11-16T19:08:53.713Z,8.27
2022-11-16T19:11:23.148Z,9.02
2022-11-16T19:13:53.714Z,8.70
2022-11-16T19:16:20.272Z,8.35
2022-11-16T19:18:46.772Z,7.60
2022-11-16T19:21:15.773Z,7.88
2022-11-16T19:23:44.922Z,7.32
2022-11-16T19:26:16.273Z,7.18
2022-11-16T19:28:44.638Z,7.07
2022-11-16T19:31:16.970Z,6.63
2022-11-16T19:33:44.552Z,6.65
2022-11-16T19:36:12.568Z,6.30
2022-11-16T19:38:39.613Z,5.47
2022-11-16T19:41:07.694Z,6.68
2022-11-16T19:43:35.034Z,5.68
2022-11-16T19:46:06.710Z,6.05
2022-11-16T20:11:00.667Z,6.40
2022-11-16T20:23:02.250Z,5.90
2022-11-16T20:25:18.735Z,5.20
2022-11-16T20:27:48.642Z,4.80
2022-11-16T20:33:41.093Z,4.75
2022-11-16T20:36:18.288Z,5.00
2022-11-16T20:45:14.957Z,4.57
2022-11-16T20:48:03.315Z,5.47
2022-11-16T20:51:05.743Z,4.60
2022-11-16T20:54:00.872Z,4.10
2022-11-16T20:56:36.056Z,4.30
2022-11-16T20:59:15.088Z,5.20
2022-11-16T21:05:08.160Z,5.55
2022-11-16T21:14:07.783Z,5.22
2022-11-16T21:17:22.992Z,4.85
2022-11-16T21:20:25.113Z,6.88
2022-11-16T21:23:35.623Z,7.55
2022-11-16T21:26:04.841Z,5.78
2022-11-16T21:28:32.012Z,5.78
2022-11-16T21:31:00.807Z,6.28
2022-11-16T21:33:28.592Z,5.43
2022-11-16T21:35:55.277Z,6.00
2022-11-16T21:40:49.827Z,5.20
2022-11-16T21:43:16.532Z,5.70
2022-11-16T21:48:10.039Z,4.78
2022-11-16T21:50:37.230Z,5.53
2022-11-16T21:53:13.293Z,4.95
2022-11-16T21:55:39.724Z,5.03
2022-11-16T21:58:06.546Z,4.78
2022-11-16T22:00:33.214Z,5.65
2022-11-16T22:05:17.160Z,4.80
2022-11-16T22:07:43.764Z,4.68
2022-11-16T22:10:12.381Z,5.40
2022-11-16T22:12:39.428Z,5.20
2022-11-16T22:15:07.225Z,5.15
2022-11-16T22:17:33.932Z,5.20
2022-11-16T22:22:27.308Z,5.05
2022-11-16T22:24:54.228Z,4.80
2022-11-16T22:27:21.108Z,5.28
2022-11-16T22:29:47.753Z,4.93
2022-11-16T22:32:14.354Z,4.88
2022-11-16T22:34:40.950Z,4.55
2022-11-16T22:37:07.615Z,4.80
2022-11-16T22:39:34.814Z,5.28
2022-11-16T22:42:01.400Z,5.32
2022-11-16T22:44:27.948Z,5.60
2022-11-16T22:46:54.594Z,5.68
2022-11-16T22:51:47.815Z,4.35
2022-11-16T22:59:09.932Z,5.33
2022-11-16T23:01:37.689Z,5.90
2022-11-16T23:04:04.504Z,5.30
2022-11-16T23:08:58.107Z,5.65
2022-11-16T23:11:45.357Z,5.80
2022-11-16T23:14:33.185Z,6.05
2022-11-16T23:19:45.172Z,6.30
2022-11-16T23:22:35.952Z,7.00
2022-11-16T23:25:22.584Z,7.03
2022-11-16T23:27:55.284Z,7.18
2022-11-16T23:30:22.288Z,7.53
2022-11-16T23:32:49.108Z,6.95
2022-11-16T23:37:55.730Z,6.80
2022-11-16T23:40:24.847Z,6.80
2022-11-16T23:43:11.491Z,6.90
2022-11-16T23:45:39.136Z,6.53
2022-11-16T23:48:07.895Z,6.60
2022-11-16T23:50:34.580Z,7.30
2022-11-16T23:53:01.632Z,6.50
2022-11-16T23:55:28.487Z,6.88
2022-11-16T23:57:55.157Z,6.47
